Time;durP1;ratioP1;P1;durP2;ratioP2;P2;SDS_P1;SDS_P2;PMS_P1;PMS_P2;Temp;Humidity;BMP_temperature;BMP_pressure;BME280_temperature;BME280_humidity;BME280_pressure;Samples;Min_cycle;Max_cycle;Signal;HPM_P1;HPM_P2
2022/01/02 00:01:58;;;;;;;19.27;10.18;;;;;;;5.46;85.89;101472.27;1683906;84;25845;-79
2022/01/02 00:04:29;;;;;;;18.17;10.20;;;;;;;5.48;85.86;101474.78;1684420;84;32678;-80
2022/01/02 00:07:00;;;;;;;18.70;10.05;;;;;;;5.49;85.87;101473.82;1680212;84;25854;-79
2022/01/02 00:09:33;;;;;;;22.60;11.03;;;;;;;5.49;85.84;101469.33;1680564;84;25924;-79
2022/01/02 00:12:11;;;;;;;25.77;10.80;;;;;;;5.50;85.79;101474.16;1677814;84;27556;-80
2022/01/02 00:14:41;;;;;;;22.13;11.03;;;;;;;5.49;85.80;101465.84;1671374;84;25698;-79
2022/01/02 00:17:09;;;;;;;24.98;12.90;;;;;;;5.52;85.88;101465.56;1673976;84;26022;-80
2022/01/02 00:19:39;;;;;;;29.40;13.40;;;;;;;5.53;85.91;101474.38;1669974;84;26598;-79
2022/01/02 00:22:13;;;;;;;34.75;13.90;;;;;;;5.54;85.83;101476.90;1665822;85;26082;-80
2022/01/02 00:24:33;;;;;;;31.33;15.00;;;;;;;5.52;85.82;101471.39;1668738;84;27554;-79
2022/01/02 00:27:00;;;;;;;27.70;14.07;;;;;;;5.48;85.88;101472.97;1669936;84;25987;-80
2022/01/02 00:29:27;;;;;;;26.05;13.15;;;;;;;5.51;86.02;101474.53;1670164;84;25302;-79
2022/01/02 00:31:54;;;;;;;26.52;13.30;;;;;;;5.51;86.00;101467.88;1671709;84;25988;-79
2022/01/02 00:34:21;;;;;;;26.20;12.73;;;;;;;5.52;85.99;101468.22;1669956;84;25630;-79
2022/01/02 00:36:47;;;;;;;27.73;12.43;;;;;;;5.49;86.04;101466.66;1674332;84;28258;-79
2022/01/02 00:39:14;;;;;;;24.50;12.98;;;;;;;5.50;86.05;101468.84;1665818;85;25956;-80
2022/01/02 00:42:08;;;;;;;23.85;11.68;;;;;;;5.49;86.07;101464.01;1674056;84;26106;-80
2022/01/02 00:44:54;;;;;;;22.10;11.05;;;;;;;5.47;86.13;101461.97;1665964;85;25789;-80
2022/01/02 00:47:44;;;;;;;21.02;10.80;;;;;;;5.46;86.13;101462.97;1651829;84;25402;-80
2022/01/02 00:50:20;;;;;;;17.98;9.43;;;;;;;5.48;86.18;101464.15;1673677;84;28197;-80
2022/01/02 00:52:49;;;;;;;18.60;10.03;;;;;;;5.48;86.26;101455.70;1673286;84;25868;-79
2022/01/02 00:55:22;;;;;;;22.15;9.60;;;;;;;5.53;86.24;101445.16;1670118;84;25790;-80
2022/01/02 00:58:02;;;;;;;20.43;9.40;;;;;;;5.52;86.11;101440.83;1663345;84;26060;-79
2022/01/02 01:00:30;;;;;;;17.67;8.53;;;;;;;5.53;86.11;101434.52;1678069;84;25769;-79
2022/01/02 01:03:01;;;;;;;18.65;8.55;;;;;;;5.53;86.12;101433.20;1673768;84;27533;-80
2022/01/02 01:05:34;;;;;;;13.90;7.67;;;;;;;5.54;86.02;101431.72;1669924;84;25926;-79
2022/01/02 01:08:05;;;;;;;13.18;7.72;;;;;;;5.51;86.03;101429.83;1670287;84;25910;-80
2022/01/02 01:10:35;;;;;;;;;;;;;;;5.49;86.02;101428.65;1671959;84;25858;-79
2022/01/02 01:13:05;;;;;;;12.10;6.85;;;;;;;5.49;86.09;101431.30;1673644;84;25879;-80
2022/01/02 01:15:34;;;;;;;11.53;7.15;;;;;;;5.46;86.22;101428.91;1686834;84;28315;-79
2022/01/02 01:18:01;;;;;;;14.65;8.25;;;;;;;5.43;86.26;101427.86;1662991;84;26523;-80
2022/01/02 01:20:37;;;;;;;13.35;7.10;;;;;;;5.43;86.37;101429.19;1675802;85;26542;-80
2022/01/02 01:23:04;;;;;;;11.03;6.65;;;;;;;5.45;86.53;101427.23;1678479;84;26025;-79
2022/01/02 01:25:30;;;;;;;16.27;8.15;;;;;;;5.46;86.59;101424.91;1675760;85;26274;-80
2022/01/02 01:27:57;;;;;;;13.32;7.30;;;;;;;5.46;86.67;101422.26;1679623;84;27479;-80
2022/01/02 01:30:27;;;;;;;15.53;7.30;;;;;;;5.44;86.60;101410.45;1679711;84;25934;-79
2022/01/02 01:32:54;;;;;;;14.33;6.53;;;;;;;5.46;86.74;101408.50;1686999;84;26665;-80
2022/01/02 01:35:22;;;;;;;14.78;7.00;;;;;;;5.45;86.74;101408.64;1683600;84;25874;-80
2022/01/02 01:37:49;;;;;;;11.93;6.83;;;;;;;5.45;86.84;101400.16;1669249;84;26626;-80
2022/01/02 01:40:17;;;;;;;15.70;8.10;;;;;;;5.45;86.89;101399.34;1655386;85;27537;-79
2022/01/02 01:42:57;;;;;;;13.70;7.20;;;;;;;5.44;86.88;101394.98;1683361;84;25653;-79
2022/01/02 01:47:51;;;;;;;13.28;7.12;;;;;;;5.44;87.09;101387.86;1653914;85;26565;-79
2022/01/02 01:50:22;;;;;;;16.32;8.08;;;;;;;5.46;87.10;101381.08;1679662;84;25964;-79
2022/01/02 01:52:49;;;;;;;12.00;7.37;;;;;;;5.46;87.13;101373.11;1677990;84;27724;-79
2022/01/02 01:55:20;;;;;;;11.97;8.33;;;;;;;5.49;87.19;101375.50;1679981;84;26073;-79
2022/01/02 01:57:44;;;;;;;15.18;9.08;;;;;;;5.49;87.18;101364.37;1678801;84;25883;-79
2022/01/02 02:00:15;;;;;;;17.50;9.35;;;;;;;5.51;87.12;101365.58;1676083;85;25847;-80
2022/01/02 02:02:46;;;;;;;16.87;9.30;;;;;;;5.51;87.19;101354.11;1683861;84;25972;-79
2022/01/02 02:05:14;;;;;;;15.00;8.73;;;;;;;5.51;87.12;101356.28;1675790;85;27497;-79
2022/01/02 02:07:44;;;;;;;17.40;9.05;;;;;;;5.48;87.14;101357.39;1680243;84;25844;-80
2022/01/02 02:10:34;;;;;;;14.75;9.13;;;;;;;5.47;87.14;101352.22;1686426;84;26463;-79
2022/01/02 02:12:54;;;;;;;;;;;;;;;5.45;87.18;101348.34;1683564;84;25825;-80
2022/01/02 02:15:22;;;;;;;19.35;9.35;;;;;;;5.43;87.23;101347.64;1672547;84;25830;-79
2022/01/02 02:17:51;;;;;;;17.02;10.32;;;;;;;5.37;87.37;101332.25;1651421;85;27491;-80
2022/01/02 02:20:27;;;;;;;17.30;9.33;;;;;;;5.38;87.57;101329.11;1677001;84;25936;-79
2022/01/02 02:22:56;;;;;;;19.67;9.90;;;;;;;5.39;87.57;101328.12;1673704;84;25398;-80
2022/01/02 02:25:29;;;;;;;17.65;9.40;;;;;;;5.36;87.54;101320.44;1673784;84;26562;-79
2022/01/02 02:28:01;;;;;;;18.92;9.25;;;;;;;5.36;87.62;101328.41;1668735;84;25976;-80
2022/01/02 02:30:31;;;;;;;16.95;9.08;;;;;;;5.34;87.69;101327.70;1677841;84;28312;-80
2022/01/02 02:33:00;;;;;;;15.35;8.75;;;;;;;5.38;87.85;101334.42;1673516;84;25858;-80
2022/01/02 02:35:30;;;;;;;13.93;8.98;;;;;;;5.37;87.85;101328.74;1656192;85;26609;-79
2022/01/02 02:37:58;;;;;;;13.70;8.45;;;;;;;5.37;87.89;101325.61;1641185;86;26552;-80
2022/01/02 02:40:28;;;;;;;17.75;9.55;;;;;;;5.39;87.89;101326.31;1658020;85;25363;-80
2022/01/02 02:43:04;;;;;;;16.25;8.45;;;;;;;5.37;87.83;101324.28;1656348;85;27489;-80
2022/01/02 02:52:20;;;;;;;20.68;10.05;;;;;;;5.34;88.24;101315.27;1677006;84;26146;-80
2022/01/02 02:54:00;;;;;;;22.37;12.15;;;;;;;5.34;88.24;101324.57;1644913;84;26310;-80
2022/01/02 02:56:39;;;;;;;17.00;9.80;;;;;;;5.35;88.28;101322.73;1679507;84;27645;-80
2022/01/02 02:58:57;;;;;;;17.40;8.80;;;;;;;5.33;88.24;101317.56;1665907;84;25853;-80
2022/01/02 03:01:28;;;;;;;21.05;9.15;;;;;;;5.33;88.37;101323.35;1633691;87;26153;-79
2022/01/02 03:03:55;;;;;;;18.90;9.33;;;;;;;5.31;88.43;101318.66;1638147;86;27082;-79
2022/01/02 03:06:22;;;;;;;16.48;9.10;;;;;;;5.32;88.64;101302.58;1660444;85;25797;-80
2022/01/02 03:08:51;;;;;;;13.08;8.58;;;;;;;5.32;88.59;101290.63;1666071;86;28770;-80
2022/01/02 03:11:21;;;;;;;17.95;9.58;;;;;;;5.33;88.72;101286.16;1675096;84;26044;-79
2022/01/02 03:13:51;;;;;;;15.05;8.63;;;;;;;5.31;88.78;101263.73;1673960;84;25812;-80
2022/01/02 03:16:18;;;;;;;13.93;8.93;;;;;;;5.33;88.79;101264.44;1674573;84;26006;-80
2022/01/02 03:18:45;;;;;;;17.30;9.25;;;;;;;5.34;88.92;101258.64;1675942;84;25893;-79
2022/01/02 03:21:12;;;;;;;19.02;9.35;;;;;;;5.35;89.03;101254.99;1712007;82;27469;-80
2022/01/02 03:23:41;;;;;;;13.83;8.60;;;;;;;5.33;89.05;101251.16;1713917;82;26064;-80
2022/01/02 03:26:07;;;;;;;15.53;8.58;;;;;;;5.33;89.20;101253.81;1714717;82;26554;-79
2022/01/02 03:28:34;;;;;;;14.53;8.55;;;;;;;5.33;89.24;101252.48;1715296;82;26544;-80
2022/01/02 03:31:01;;;;;;;18.20;9.70;;;;;;;5.33;89.38;101248.50;1713558;82;25746;-80
2022/01/02 03:33:30;;;;;;;19.95;9.80;;;;;;;5.34;89.47;101242.22;1710708;82;27479;-78
2022/01/02 03:35:56;;;;;;;16.12;9.08;;;;;;;5.32;89.41;101228.20;1714473;82;26578;-80
2022/01/02 03:38:23;;;;;;;23.87;10.25;;;;;;;5.30;89.50;101213.41;1715147;82;25760;-80
2022/01/02 03:40:50;;;;;;;23.02;10.48;;;;;;;5.27;89.55;101215.00;1714586;82;26566;-80
2022/01/02 03:43:16;;;;;;;17.77;8.98;;;;;;;5.25;89.74;101201.87;1715941;82;26029;-80
2022/01/02 03:45:43;;;;;;;17.15;10.20;;;;;;;5.25;89.91;101200.55;1713575;82;27524;-79
2022/01/02 03:48:09;;;;;;;15.58;10.00;;;;;;;5.27;89.95;101204.38;1714139;82;25888;-79
2022/01/02 03:50:35;;;;;;;21.25;10.23;;;;;;;5.27;90.02;101205.22;1711130;82;25785;-80
2022/01/02 03:53:03;;;;;;;18.98;9.50;;;;;;;5.27;90.03;101207.88;1710218;82;26572;-79
2022/01/02 03:55:29;;;;;;;16.25;9.53;;;;;;;5.26;90.10;101194.75;1714567;82;25826;-79
2022/01/02 03:57:56;;;;;;;21.70;9.35;;;;;;;5.27;90.21;101187.11;1711836;81;27466;-80
2022/01/02 04:00:22;;;;;;;14.55;8.63;;;;;;;5.30;90.27;101185.01;1715952;82;25958;-80
2022/01/02 04:02:48;;;;;;;19.57;8.73;;;;;;;5.31;90.38;101179.22;1712436;82;25832;-79
2022/01/02 04:05:16;;;;;;;19.85;10.18;;;;;;;5.30;90.37;101175.71;1715337;82;26580;-80
2022/01/02 04:07:45;;;;;;;13.60;8.27;;;;;;;5.32;90.49;101175.59;1713358;82;25319;-78
2022/01/02 04:10:16;;;;;;;19.12;8.70;;;;;;;5.31;90.44;101180.06;1712622;82;27628;-79
2022/01/02 04:12:42;;;;;;;13.08;8.28;;;;;;;5.29;90.47;101174.53;1713953;82;26417;-79
2022/01/02 04:15:12;;;;;;;14.47;8.83;;;;;;;5.26;90.58;101169.52;1715473;82;25802;-80
2022/01/02 04:17:39;;;;;;;12.98;7.67;;;;;;;5.25;90.76;101162.03;1720994;83;26546;-80
2022/01/02 04:20:10;;;;;;;18.98;8.45;;;;;;;5.27;90.85;101155.23;1733501;81;25752;-79
2022/01/02 04:22:36;;;;;;;13.80;7.20;;;;;;;5.26;90.87;101146.42;1729224;81;27476;-80
2022/01/02 04:25:04;;;;;;;15.80;7.90;;;;;;;5.25;90.91;101144.77;1732054;81;25973;-80
2022/01/02 04:27:31;;;;;;;12.43;7.58;;;;;;;5.24;91.03;101144.40;1728850;81;25804;-79
2022/01/02 04:29:58;;;;;;;13.03;7.50;;;;;;;5.25;91.10;101135.95;1724975;81;26610;-81
2022/01/02 04:32:25;;;;;;;13.90;8.08;;;;;;;5.27;91.15;101124.22;1723809;81;25757;-79
2022/01/02 04:34:52;;;;;;;10.55;7.00;;;;;;;5.30;91.21;101109.82;1729368;81;27463;-79
2022/01/02 04:37:19;;;;;;;13.70;6.30;;;;;;;5.29;91.18;101098.35;1694585;83;25853;-79
2022/01/02 04:39:45;;;;;;;14.83;6.87;;;;;;;5.31;91.22;101090.23;1681985;84;25869;-80
2022/01/02 04:42:11;;;;;;;12.43;6.85;;;;;;;5.30;91.19;101080.09;1724882;81;26535;-79
2022/01/02 04:44:38;;;;;;;12.25;5.95;;;;;;;5.29;91.20;101076.26;1682495;84;25606;-79
2022/01/02 04:47:06;;;;;;;14.80;6.72;;;;;;;5.27;91.21;101067.11;1675058;84;27555;-79
2022/01/02 04:49:32;;;;;;;13.93;6.70;;;;;;;5.28;91.37;101065.30;1723371;81;26182;-80
2022/01/02 04:51:58;;;;;;;10.90;6.65;;;;;;;5.27;91.32;101066.27;1728542;81;25304;-80
2022/01/02 04:54:25;;;;;;;14.83;7.80;;;;;;;5.26;91.42;101071.25;1728627;81;26651;-80
2022/01/02 04:56:52;;;;;;;13.15;6.50;;;;;;;5.26;91.61;101080.55;1712659;81;26590;-80
2022/01/02 04:59:18;;;;;;;10.55;6.65;;;;;;;5.24;91.64;101080.66;1697129;83;27459;-80
2022/01/02 05:01:46;;;;;;;11.63;6.10;;;;;;;5.25;91.79;101083.68;1666095;84;26008;-80
2022/01/02 05:04:12;;;;;;;10.58;6.20;;;;;;;5.27;91.90;101083.05;1696606;83;26604;-80
2022/01/02 05:06:39;;;;;;;11.00;5.97;;;;;;;5.27;91.82;101087.52;1694349;83;26606;-80
2022/01/02 05:09:06;;;;;;;13.32;6.87;;;;;;;5.30;92.05;101084.08;1698217;83;25789;-80
2022/01/02 05:11:33;;;;;;;12.37;6.35;;;;;;;5.34;92.16;101073.55;1696654;83;27450;-80
2022/01/02 05:14:00;;;;;;;11.35;6.17;;;;;;;5.38;92.19;101052.36;1694878;83;26047;-79
2022/01/02 05:16:26;;;;;;;13.78;6.85;;;;;;;5.43;92.32;101043.45;1695858;83;25877;-80
2022/01/02 05:18:52;;;;;;;10.05;6.08;;;;;;;5.47;92.30;101034.20;1697504;83;25791;-79
2022/01/02 05:21:18;;;;;;;8.05;5.83;;;;;;;5.49;92.29;101034.09;1693726;83;25804;-80
2022/01/02 05:23:45;;;;;;;14.50;7.40;;;;;;;5.49;92.25;101027.44;1698246;83;27483;-79
2022/01/02 05:26:11;;;;;;;11.78;6.90;;;;;;;5.53;92.42;101020.02;1702553;83;26510;-79
2022/01/02 05:28:38;;;;;;;15.05;7.92;;;;;;;5.52;92.36;101004.55;1698818;83;25832;-80
2022/01/02 05:31:04;;;;;;;14.87;7.60;;;;;;;5.53;92.43;101004.06;1695028;83;26557;-80
2022/01/02 05:33:30;;;;;;;12.60;6.40;;;;;;;5.54;92.55;101002.59;1698984;83;25779;-80
2022/01/02 05:35:57;;;;;;;13.55;7.37;;;;;;;5.54;92.60;100997.78;1685376;84;27488;-80
2022/01/02 05:38:23;;;;;;;13.40;7.03;;;;;;;5.54;92.70;100981.84;1683232;84;25942;-80
2022/01/02 05:40:52;;;;;;;11.30;7.15;;;;;;;5.54;92.85;100980.52;1718758;81;25992;-79
2022/01/02 05:43:18;;;;;;;15.20;7.50;;;;;;;5.54;92.99;100975.20;1699039;83;26705;-80
2022/01/02 05:45:45;;;;;;;14.47;7.42;;;;;;;5.55;93.02;100974.20;1682264;84;25757;-79
2022/01/02 05:48:11;;;;;;;14.53;8.28;;;;;;;5.53;93.15;100977.50;1683898;84;27547;-79
2022/01/02 05:50:38;;;;;;;15.35;8.03;;;;;;;5.52;93.29;100974.00;1679337;84;25806;-79
2022/01/02 05:53:04;;;;;;;14.78;9.05;;;;;;;5.56;93.50;100965.27;1683617;84;25789;-80
2022/01/02 05:55:30;;;;;;;11.25;7.22;;;;;;;5.57;93.60;100961.61;1733842;81;25935;-80
2022/01/02 05:57:57;;;;;;;14.23;7.45;;;;;;;5.60;93.62;100963.98;1707107;83;25851;-80
2022/01/02 06:00:23;;;;;;;14.18;7.78;;;;;;;5.59;93.78;100955.17;1730540;81;27439;-80
2022/01/02 06:02:51;;;;;;;14.68;8.60;;;;;;;5.61;93.92;100937.25;1731783;81;25888;-80
2022/01/02 06:05:18;;;;;;;13.80;8.78;;;;;;;5.62;94.09;100926.98;1728508;81;25773;-79
2022/01/02 06:07:44;;;;;;;13.68;8.68;;;;;;;5.63;94.33;100918.50;1731400;81;26517;-79
2022/01/02 06:10:10;;;;;;;14.70;9.00;;;;;;;5.65;94.48;100925.83;1727495;81;26045;-80
2022/01/02 06:12:37;;;;;;;16.85;9.30;;;;;;;5.65;94.73;100927.16;1729536;81;27487;-80
2022/01/02 06:15:06;;;;;;;17.85;10.15;;;;;;;5.66;94.91;100926.19;1729825;81;25923;-80
2022/01/02 06:17:33;;;;;;;15.95;9.60;;;;;;;5.66;95.09;100924.38;1688447;83;25871;-80
2022/01/02 06:20:00;;;;;;;17.90;10.15;;;;;;;5.69;95.38;100920.08;1679098;84;26578;-79
2022/01/02 06:22:26;;;;;;;20.92;10.13;;;;;;;5.70;95.46;100912.95;1656900;84;26150;-80
2022/01/02 06:24:52;;;;;;;21.00;10.13;;;;;;;5.74;95.66;100909.01;1662629;84;28334;-80
2022/01/02 06:27:20;;;;;;;24.02;12.05;;;;;;;5.75;95.84;100902.20;1662670;85;25887;-80
2022/01/02 06:29:47;;;;;;;19.62;11.55;;;;;;;5.78;96.09;100891.77;1666546;84;25381;-80
2022/01/02 06:32:14;;;;;;;19.87;11.12;;;;;;;5.80;96.25;100888.47;1670716;84;25860;-80
2022/01/02 06:34:40;;;;;;;22.13;12.13;;;;;;;5.82;96.39;100880.70;1670639;85;26028;-80
2022/01/02 06:37:07;;;;;;;21.82;12.10;;;;;;;5.84;96.49;100889.88;1673469;84;27661;-79
2022/01/02 06:39:34;;;;;;;24.57;12.63;;;;;;;5.87;96.85;100882.94;1663882;84;25865;-80
2022/01/02 06:42:01;;;;;;;23.65;13.03;;;;;;;5.87;96.87;100872.31;1663909;85;26708;-80
2022/01/02 06:44:27;;;;;;;27.22;13.53;;;;;;;5.89;97.05;100872.51;1659122;85;25823;-80
2022/01/02 06:46:54;;;;;;;24.65;12.55;;;;;;;5.91;97.10;100867.87;1659291;85;25916;-80
2022/01/02 06:49:20;;;;;;;27.17;14.75;;;;;;;5.94;97.22;100865.42;1662014;85;27550;-80
2022/01/02 06:51:46;;;;;;;25.15;12.80;;;;;;;5.94;97.38;100867.59;1665085;84;25953;-80
2022/01/02 06:54:12;;;;;;;27.85;13.22;;;;;;;5.96;97.46;100874.08;1671777;84;25933;-80
2022/01/02 06:56:39;;;;;;;25.45;13.38;;;;;;;5.97;97.65;100877.91;1674851;84;25757;-80
2022/01/02 06:59:05;;;;;;;27.02;13.43;;;;;;;6.01;97.69;100875.77;1666971;84;25842;-80
2022/01/02 07:01:32;;;;;;;23.47;13.30;;;;;;;6.03;97.77;100871.17;1678856;83;27465;-80
2022/01/02 07:03:58;;;;;;;25.00;14.07;;;;;;;6.05;97.74;100870.00;1672365;84;26496;-80
2022/01/02 07:06:24;;;;;;;24.67;13.25;;;;;;;6.10;97.87;100878.38;1673441;84;25821;-80
2022/01/02 07:08:51;;;;;;;26.42;13.25;;;;;;;6.13;97.89;100875.42;1667762;84;25854;-80
2022/01/02 07:11:18;;;;;;;28.40;14.75;;;;;;;6.17;98.03;100876.79;1658018;85;25842;-80
2022/01/02 07:13:44;;;;;;;27.73;14.13;;;;;;;6.18;98.06;100867.81;1660919;85;27467;-80
2022/01/02 07:16:10;;;;;;;29.70;15.00;;;;;;;6.20;98.18;100865.83;1664547;85;25955;-79
2022/01/02 07:18:36;;;;;;;24.05;13.30;;;;;;;6.24;98.22;100862.39;1671142;85;25824;-80
2022/01/02 07:21:03;;;;;;;26.65;15.32;;;;;;;6.27;98.20;100858.08;1667699;85;25761;-80
2022/01/02 07:23:29;;;;;;;25.85;13.88;;;;;;;6.30;98.23;100847.63;1669659;85;25866;-80
2022/01/02 07:25:55;;;;;;;26.35;13.78;;;;;;;6.32;98.23;100831.02;1681085;84;27632;-80
2022/01/02 07:28:22;;;;;;;28.17;14.93;;;;;;;6.35;98.34;100827.55;1678788;84;25779;-80
2022/01/02 07:30:48;;;;;;;29.57;13.38;;;;;;;6.39;98.52;100828.09;1682590;84;25784;-80
2022/01/02 07:33:14;;;;;;;29.07;13.72;;;;;;;6.40;98.55;100828.42;1680183;84;25813;-80
2022/01/02 07:35:41;;;;;;;26.42;13.35;;;;;;;6.43;98.65;100822.31;1682417;84;26055;-80
2022/01/02 07:38:07;;;;;;;28.67;14.38;;;;;;;6.46;98.73;100819.84;1680851;84;27479;-79
2022/01/02 07:40:33;;;;;;;25.72;14.20;;;;;;;6.49;98.80;100814.19;1682392;84;26006;-80
2022/01/02 07:42:59;;;;;;;30.80;15.72;;;;;;;6.54;98.87;100815.91;1673176;84;25758;-80
2022/01/02 07:45:27;;;;;;;29.35;16.52;;;;;;;6.57;98.84;100813.76;1668730;84;26509;-80
2022/01/02 07:47:54;;;;;;;26.90;14.65;;;;;;;6.61;98.80;100803.63;1655249;85;26667;-80
2022/01/02 07:50:22;;;;;;;28.98;15.45;;;;;;;6.62;98.71;100789.34;1655358;86;28270;-80
2022/01/02 07:52:49;;;;;;;23.87;14.20;;;;;;;6.65;98.83;100794.36;1654169;86;26081;-79
2022/01/02 07:55:15;;;;;;;28.98;15.72;;;;;;;6.66;98.96;100784.88;1672367;84;25893;-79
2022/01/02 07:57:41;;;;;;;28.98;15.95;;;;;;;6.67;99.00;100787.05;1672265;84;26618;-80
2022/01/02 08:00:09;;;;;;;28.55;15.95;;;;;;;6.68;99.19;100778.91;1675975;84;26111;-79
2022/01/02 08:02:41;;;;;;;27.87;15.25;;;;;;;6.69;99.24;100777.08;1673618;84;27665;-80
2022/01/02 08:05:12;;;;;;;26.50;15.60;;;;;;;6.71;99.40;100783.08;1674100;84;25973;-79
2022/01/02 08:07:40;;;;;;;27.67;17.12;;;;;;;6.73;99.55;100770.45;1672887;84;25827;-79
2022/01/02 08:10:07;;;;;;;29.18;16.52;;;;;;;6.74;99.76;100771.61;1674322;84;25984;-80
2022/01/02 08:12:33;;;;;;;31.60;17.17;;;;;;;6.75;99.99;100777.29;1663788;84;25915;-80
2022/01/02 08:15:00;;;;;;;31.50;16.97;;;;;;;6.78;100.00;100776.95;1669226;84;27516;-80
2022/01/02 08:17:27;;;;;;;28.25;16.52;;;;;;;6.82;100.00;100785.48;1692474;83;25732;-80
2022/01/02 08:19:54;;;;;;;32.48;16.80;;;;;;;6.84;100.00;100755.54;1666979;84;25983;-80
2022/01/02 08:22:20;;;;;;;35.15;15.88;;;;;;;6.89;100.00;100757.20;1685599;84;25769;-80
2022/01/02 08:24:46;;;;;;;30.45;16.40;;;;;;;6.92;100.00;100759.56;1678796;84;25917;-80
2022/01/02 08:27:12;;;;;;;28.50;15.48;;;;;;;6.95;100.00;100757.41;1675995;85;27463;-80
2022/01/02 08:29:39;;;;;;;35.75;14.85;;;;;;;7.00;100.00;100750.27;1671214;84;25912;-79
2022/01/02 08:32:05;;;;;;;31.90;15.53;;;;;;;7.04;100.00;100748.95;1681894;84;25816;-79
2022/01/02 08:34:31;;;;;;;33.10;17.30;;;;;;;7.07;100.00;100761.12;1686730;84;26074;-80
2022/01/02 08:36:57;;;;;;;29.95;16.17;;;;;;;7.09;100.00;100758.64;1694121;83;26544;-80
2022/01/02 08:39:23;;;;;;;33.02;16.80;;;;;;;7.12;100.00;100751.64;1679716;84;27468;-80
2022/01/02 08:41:50;;;;;;;34.65;16.35;;;;;;;7.14;100.00;100741.69;1695823;83;25538;-80
2022/01/02 08:44:16;;;;;;;33.70;15.68;;;;;;;7.17;100.00;100732.52;1693514;83;26215;-80
2022/01/02 08:46:42;;;;;;;36.68;16.87;;;;;;;7.19;100.00;100735.36;1673099;84;25848;-81
2022/01/02 08:49:08;;;;;;;33.05;16.77;;;;;;;7.23;100.00;100739.89;1664424;84;26442;-80
2022/01/02 08:51:35;;;;;;;33.33;16.02;;;;;;;7.25;100.00;100728.56;1673183;84;27486;-80
2022/01/02 08:54:03;;;;;;;33.58;16.87;;;;;;;7.28;100.00;100712.23;1682095;84;25873;-80
2022/01/02 08:56:29;;;;;;;37.98;18.02;;;;;;;7.31;100.00;100696.78;1685914;84;25806;-80
2022/01/02 08:58:55;;;;;;;36.95;17.10;;;;;;;7.32;100.00;100689.11;1697178;83;25852;-80
2022/01/02 09:01:21;;;;;;;32.17;16.75;;;;;;;7.35;100.00;100682.13;1681454;84;25800;-80
2022/01/02 09:03:48;;;;;;;31.23;16.50;;;;;;;7.38;100.00;100675.13;1670647;84;28860;-80
2022/01/02 09:06:15;;;;;;;32.33;16.12;;;;;;;7.41;100.00;100672.63;1683085;84;25814;-80
2022/01/02 09:08:41;;;;;;;31.25;15.63;;;;;;;7.43;100.00;100676.80;1693125;84;26378;-80
2022/01/02 09:11:08;;;;;;;31.77;16.75;;;;;;;7.46;100.00;100680.98;1688661;84;25801;-80
2022/01/02 09:13:34;;;;;;;33.23;16.25;;;;;;;7.50;100.00;100675.65;1699862;83;25898;-80
2022/01/02 09:16:00;;;;;;;30.15;15.90;;;;;;;7.52;100.00;100666.98;1670239;84;27532;-79
2022/01/02 09:18:26;;;;;;;30.70;16.17;;;;;;;7.55;100.00;100651.98;1690748;83;25816;-80
2022/01/02 09:20:53;;;;;;;31.37;16.02;;;;;;;7.58;100.00;100649.84;1684479;84;25332;-80
2022/01/02 09:23:19;;;;;;;33.42;16.97;;;;;;;7.61;100.00;100646.81;1725418;81;26481;-80
2022/01/02 09:25:45;;;;;;;34.27;17.62;;;;;;;7.63;100.00;100646.67;1737055;81;25900;-80
2022/01/02 09:28:12;;;;;;;35.55;18.40;;;;;;;7.67;100.00;100636.01;1724560;81;28267;-80
2022/01/02 09:30:38;;;;;;;32.13;17.98;;;;;;;7.70;100.00;100631.66;1729170;81;26011;-80
2022/01/02 09:33:08;;;;;;;36.70;19.20;;;;;;;7.72;100.00;100626.49;1728566;81;25863;-81
2022/01/02 09:35:33;;;;;;;33.67;18.15;;;;;;;7.76;100.00;100620.34;1726740;81;26671;-80
2022/01/02 09:37:59;;;;;;;33.85;18.75;;;;;;;7.78;100.00;100612.48;1733027;81;25875;-80
2022/01/02 09:40:27;;;;;;;38.08;19.15;;;;;;;7.79;100.00;100603.50;1727493;81;27436;-80
2022/01/02 09:42:57;;;;;;;35.90;19.32;;;;;;;7.82;100.00;100592.16;1735793;81;26009;-80
2022/01/02 09:45:25;;;;;;;40.63;20.67;;;;;;;7.85;100.00;100582.50;1726922;81;26472;-80
2022/01/02 09:47:52;;;;;;;37.33;19.42;;;;;;;7.87;100.00;100572.50;1726799;81;25877;-80
2022/01/02 09:50:18;;;;;;;42.93;19.95;;;;;;;7.90;100.00;100561.47;1733094;81;26597;-80
2022/01/02 09:52:46;;;;;;;43.28;20.10;;;;;;;7.92;100.00;100562.97;1728112;81;27448;-81
2022/01/02 09:55:12;;;;;;;43.08;19.95;;;;;;;7.95;100.00;100550.64;1724676;81;25993;-80
2022/01/02 09:57:46;;;;;;;40.85;22.27;;;;;;;7.97;100.00;100530.45;1737065;81;25940;-80
2022/01/02 10:00:14;;;;;;;42.23;21.62;;;;;;;8.00;100.00;100529.59;1729099;81;26569;-80
2022/01/02 10:03:00;;;;;;;40.50;20.97;;;;;;;8.00;100.00;100528.27;1727521;81;25852;-80
2022/01/02 10:05:30;;;;;;;48.38;22.67;;;;;;;8.04;100.00;100510.91;1729364;81;27543;-80
2022/01/02 10:07:57;;;;;;;41.53;21.87;;;;;;;8.06;100.00;100501.42;1721991;81;26409;-80
2022/01/02 10:10:34;;;;;;;34.98;19.23;;;;;;;8.09;100.00;100497.05;1725102;81;25878;-80
2022/01/02 10:13:03;;;;;;;40.23;20.48;;;;;;;8.10;100.00;100498.73;1725369;81;26493;-80
2022/01/02 10:15:34;;;;;;;38.17;19.52;;;;;;;8.12;100.00;100506.06;1726546;81;25360;-80
2022/01/02 10:18:08;;;;;;;;;;;;;;;8.13;100.00;100493.03;1723039;81;27550;-80
2022/01/02 10:20:42;;;;;;;41.53;21.57;;;;;;;8.16;100.00;100512.71;1728432;82;26692;-80
2022/01/02 10:23:23;;;;;;;39.50;20.97;;;;;;;8.17;100.00;100509.05;1724310;82;25859;-80
2022/01/02 10:25:55;;;;;;;39.85;21.40;;;;;;;8.20;100.00;100501.52;1731501;82;26376;-80
2022/01/02 10:28:41;;;;;;;42.05;22.37;;;;;;;8.24;100.00;100485.98;1732306;81;25842;-80
2022/01/02 10:31:14;;;;;;;38.70;20.92;;;;;;;8.29;100.00;100474.33;1718997;81;27024;-80
2022/01/02 10:33:57;;;;;;;39.15;20.20;;;;;;;8.33;100.00;100474.30;1726585;82;25787;-80
2022/01/02 10:36:34;;;;;;;35.92;19.17;;;;;;;8.38;100.00;100470.09;1729709;81;25873;-80
2022/01/02 10:39:20;;;;;;;38.35;20.70;;;;;;;8.42;100.00;100460.75;1721240;82;25841;-80
2022/01/02 10:41:51;;;;;;;38.55;21.07;;;;;;;8.46;100.00;100450.05;1671769;85;25828;-81
2022/01/02 10:44:31;;;;;;;34.70;19.65;;;;;;;8.51;100.00;100444.98;1693934;83;27445;-81
2022/01/02 10:47:21;;;;;;;34.83;19.75;;;;;;;8.57;100.00;100435.45;1665068;84;25868;-80
2022/01/02 10:50:03;;;;;;;40.92;20.00;;;;;;;8.61;100.00;100445.27;1669156;85;25851;-80
2022/01/02 10:52:37;;;;;;;35.50;19.98;;;;;;;8.64;100.00;100424.37;1675142;84;26105;-80
2022/01/02 10:55:17;;;;;;;32.30;18.30;;;;;;;8.66;100.00;100413.00;1680105;84;25892;-80
2022/01/02 10:57:49;;;;;;;42.10;20.10;;;;;;;8.70;100.00;100402.31;1672546;84;28387;-80
2022/01/02 11:00:18;;;;;;;38.60;20.88;;;;;;;8.71;100.00;100399.95;1661502;84;26735;-80
2022/01/02 11:02:46;;;;;;;40.23;21.87;;;;;;;8.74;100.00;100408.95;1677013;84;25892;-80
2022/01/02 11:05:17;;;;;;;41.58;21.07;;;;;;;8.77;100.00;100413.92;1674219;84;26564;-80
2022/01/02 11:07:49;;;;;;;37.23;22.15;;;;;;;8.80;100.00;100402.05;1688086;83;25978;-80
2022/01/02 11:10:19;;;;;;;38.80;20.88;;;;;;;8.82;100.00;100395.53;1689109;83;28227;-80
2022/01/02 11:12:47;;;;;;;40.12;21.62;;;;;;;8.85;100.00;100381.83;1689384;83;25568;-80
2022/01/02 11:15:17;;;;;;;39.90;22.00;;;;;;;8.86;100.00;100380.80;1686588;83;25957;-80
2022/01/02 11:17:44;;;;;;;38.28;22.65;;;;;;;8.89;100.00;100382.28;1690707;83;25777;-80
2022/01/02 11:20:18;;;;;;;42.65;22.13;;;;;;;8.90;100.00;100369.23;1684384;84;25895;-80
2022/01/02 11:23:26;;;;;;;35.50;21.23;;;;;;;8.92;100.00;100351.19;1681731;84;27110;-80
2022/01/02 11:26:22;;;;;;;38.50;20.95;;;;;;;8.95;100.00;100343.66;1724079;81;26557;-80
2022/01/02 11:28:49;;;;;;;37.03;20.80;;;;;;;8.95;100.00;100349.00;1727374;81;25297;-81
2022/01/02 11:31:30;;;;;;;40.55;22.05;;;;;;;8.96;100.00;100337.28;1723226;81;26552;-80
2022/01/02 11:33:57;;;;;;;38.28;21.25;;;;;;;8.98;100.00;100331.78;1723157;81;25802;-80
2022/01/02 11:36:30;;;;;;;41.73;21.50;;;;;;;9.00;100.00;100323.08;1728538;81;27428;-80